createdAt,value
2019-02-04T00:01:27.018Z,2.23
2019-02-04T00:03:58.281Z,2.36
2019-02-04T00:06:26.150Z,2.37
2019-02-04T00:08:54.089Z,2.39
2019-02-04T00:11:21.870Z,2.43
2019-02-04T00:13:49.823Z,2.32
2019-02-04T00:16:18.314Z,2.53
2019-02-04T00:18:46.311Z,2.47
2019-02-04T00:21:14.328Z,2.48
2019-02-04T00:23:42.162Z,2.40
2019-02-04T00:26:09.997Z,2.27
2019-02-04T00:28:37.934Z,2.39
2019-02-04T00:31:05.864Z,2.42
2019-02-04T00:33:33.695Z,2.43
2019-02-04T00:36:01.470Z,2.34
2019-02-04T00:38:29.257Z,2.47
2019-02-04T00:40:57.023Z,2.52
2019-02-04T00:43:24.798Z,2.46
2019-02-04T00:45:52.735Z,2.30
2019-02-04T00:48:20.793Z,2.25
2019-02-04T00:50:49.124Z,2.33
2019-02-04T00:53:16.931Z,2.21
2019-02-04T00:55:44.890Z,2.10
2019-02-04T00:58:12.696Z,2.42
2019-02-04T01:00:40.486Z,2.42
2019-02-04T01:03:08.460Z,2.27
2019-02-04T01:05:36.212Z,2.20
2019-02-04T01:08:04.665Z,2.17
2019-02-04T01:10:32.610Z,1.96
2019-02-04T01:13:00.373Z,1.80
2019-02-04T01:15:28.570Z,1.78
2019-02-04T01:17:56.326Z,1.66
2019-02-04T01:20:26.471Z,1.62
2019-02-04T01:22:54.710Z,1.51
2019-02-04T01:25:22.492Z,1.43
2019-02-04T01:27:50.284Z,1.37
2019-02-04T01:30:19.649Z,1.35
2019-02-04T01:32:47.424Z,1.35
2019-02-04T01:35:15.169Z,1.46
2019-02-04T01:37:43.238Z,1.51
2019-02-04T01:40:20.598Z,1.65
2019-02-04T01:42:48.774Z,1.74
2019-02-04T01:45:16.546Z,2.01
2019-02-04T01:47:44.463Z,2.09
2019-02-04T01:50:15.603Z,2.23
2019-02-04T01:52:43.425Z,2.36
2019-02-04T01:55:11.391Z,2.21
2019-02-04T01:57:39.304Z,2.04
2019-02-04T02:00:32.777Z,2.08
2019-02-04T02:03:00.806Z,2.15
2019-02-04T02:05:28.678Z,2.10
2019-02-04T02:07:56.566Z,2.15
2019-02-04T02:10:25.783Z,2.16
2019-02-04T02:12:53.817Z,2.21
2019-02-04T02:15:21.980Z,2.12
2019-02-04T02:17:50.225Z,2.10
2019-02-04T02:20:21.174Z,2.06
2019-02-04T02:22:49.123Z,2.00
2019-02-04T02:25:16.892Z,1.88
2019-02-04T02:27:44.731Z,1.83
2019-02-04T02:30:25.415Z,1.75
2019-02-04T02:32:53.444Z,1.58
2019-02-04T02:35:21.705Z,1.55
2019-02-04T02:37:49.460Z,1.50
2019-02-04T02:40:21.782Z,1.41
2019-02-04T02:42:49.712Z,1.36
2019-02-04T02:45:17.892Z,1.36
2019-02-04T02:47:45.781Z,1.42
2019-02-04T02:50:13.991Z,1.50
2019-02-04T02:52:41.766Z,1.46
2019-02-04T02:55:11.017Z,1.41
2019-02-04T02:57:38.777Z,1.27
2019-02-04T03:00:10.915Z,1.27
2019-02-04T03:02:38.780Z,1.08
2019-02-04T03:05:08.924Z,1.07
2019-02-04T03:07:36.846Z,1.04
2019-02-04T03:10:06.896Z,0.97
2019-02-04T03:12:34.728Z,0.95
2019-02-04T03:15:03.521Z,0.97
2019-02-04T03:17:31.278Z,1.05
2019-02-04T03:19:59.062Z,1.20
2019-02-04T03:22:26.810Z,1.19
2019-02-04T03:24:54.567Z,1.30
2019-02-04T03:27:22.341Z,1.25
2019-02-04T03:29:50.052Z,1.33
2019-02-04T03:32:18.065Z,1.24
2019-02-04T03:34:45.824Z,1.26
2019-02-04T03:37:13.577Z,1.21
2019-02-04T03:39:41.308Z,1.15
2019-02-04T03:42:09.065Z,1.11
2019-02-04T03:44:37.001Z,1.15
2019-02-04T03:47:04.738Z,1.23
2019-02-04T03:49:32.507Z,1.24
2019-02-04T03:52:00.451Z,1.17
2019-02-04T03:54:28.190Z,1.16
2019-02-04T03:56:55.989Z,1.13
2019-02-04T03:59:23.926Z,1.13
2019-02-04T04:01:52.059Z,1.09
2019-02-04T04:04:20.160Z,1.05
2019-02-04T04:06:47.915Z,1.07
2019-02-04T04:09:15.862Z,0.94
2019-02-04T04:11:43.662Z,1.00
2019-02-04T04:14:11.447Z,1.00
2019-02-04T04:16:39.308Z,1.04
2019-02-04T04:19:07.337Z,0.92
2019-02-04T04:21:35.206Z,1.05
2019-02-04T04:24:03.103Z,0.96
2019-02-04T04:26:30.890Z,0.97
2019-02-04T04:28:58.814Z,1.07
2019-02-04T04:31:26.551Z,1.10
2019-02-04T04:33:54.470Z,0.92
2019-02-04T04:36:22.513Z,0.98
2019-02-04T04:38:50.280Z,0.97
2019-02-04T04:41:18.262Z,1.03
2019-02-04T04:43:46.189Z,1.08
2019-02-04T04:46:13.941Z,0.92
2019-02-04T04:48:41.967Z,0.88
2019-02-04T04:51:09.704Z,0.84
2019-02-04T04:53:37.483Z,0.93
2019-02-04T04:56:05.268Z,0.86
2019-02-04T04:58:33.264Z,0.87
2019-02-04T05:01:01.018Z,0.88
2019-02-04T05:03:28.810Z,0.80
2019-02-04T05:05:56.569Z,0.74
2019-02-04T05:08:24.813Z,0.79
2019-02-04T05:10:52.564Z,0.75
2019-02-04T05:13:20.540Z,0.69
2019-02-04T05:15:48.557Z,0.67
2019-02-04T05:18:16.557Z,0.69
2019-02-04T05:20:44.338Z,0.75
2019-02-04T05:23:12.298Z,0.65
2019-02-04T05:25:40.222Z,0.74
2019-02-04T05:28:08.157Z,0.79
2019-02-04T05:30:35.946Z,0.68
2019-02-04T05:33:03.868Z,0.76
2019-02-04T05:35:31.603Z,0.63
2019-02-04T05:37:59.391Z,0.71
2019-02-04T05:40:27.874Z,0.68
2019-02-04T05:42:55.694Z,0.59
2019-02-04T05:45:23.673Z,0.61
2019-02-04T05:47:51.431Z,0.56
2019-02-04T05:50:19.526Z,0.63
2019-02-04T05:52:47.925Z,0.59
2019-02-04T05:55:17.754Z,0.53
2019-02-04T05:57:45.622Z,0.58
2019-02-04T06:00:38.071Z,0.57
2019-02-04T06:03:05.852Z,0.62
2019-02-04T06:05:33.775Z,0.53
2019-02-04T06:08:01.721Z,0.60
2019-02-04T06:10:29.699Z,0.65
2019-02-04T06:12:57.451Z,0.61
2019-02-04T06:15:25.338Z,0.52
2019-02-04T06:17:53.067Z,0.45
2019-02-04T06:20:22.834Z,0.51
2019-02-04T06:22:51.080Z,0.41
2019-02-04T06:25:18.854Z,0.46
2019-02-04T06:27:47.680Z,0.52
2019-02-04T06:30:16.035Z,0.44
2019-02-04T06:32:43.793Z,0.35
2019-02-04T06:35:11.929Z,0.44
2019-02-04T06:37:39.807Z,0.31
2019-02-04T06:40:09.885Z,0.30
2019-02-04T06:42:37.663Z,0.29
2019-02-04T06:45:08.220Z,0.31
2019-02-04T06:47:36.042Z,0.35
2019-02-04T06:50:06.216Z,0.23
2019-02-04T06:52:34.098Z,0.21
2019-02-04T06:55:01.961Z,0.20
2019-02-04T06:57:29.743Z,0.32
2019-02-04T06:59:57.831Z,0.38
2019-02-04T07:02:25.762Z,0.21
2019-02-04T07:04:53.578Z,0.26
2019-02-04T07:07:21.538Z,0.20
2019-02-04T07:09:49.308Z,0.20
2019-02-04T07:12:17.080Z,0.33
2019-02-04T07:14:44.908Z,0.38
2019-02-04T07:17:12.780Z,0.31
2019-02-04T07:19:40.729Z,0.30
2019-02-04T07:22:08.465Z,0.35
2019-02-04T07:24:42.870Z,0.33
2019-02-04T07:27:05.906Z,0.36
2019-02-04T07:29:33.812Z,0.43
2019-02-04T07:32:01.582Z,0.40
2019-02-04T07:34:29.367Z,0.34
2019-02-04T07:36:57.191Z,0.46
2019-02-04T07:39:25.068Z,0.46
2019-02-04T07:41:52.836Z,0.50
2019-02-04T07:44:20.875Z,0.48
2019-02-04T07:46:48.679Z,0.52
2019-02-04T07:49:16.443Z,0.61
2019-02-04T07:51:44.259Z,0.64
2019-02-04T07:54:12.111Z,0.58
2019-02-04T07:56:39.907Z,0.71
2019-02-04T07:59:07.662Z,0.73
2019-02-04T08:01:35.714Z,0.71
2019-02-04T08:04:03.613Z,0.91
2019-02-04T08:06:31.380Z,0.96
2019-02-04T08:08:59.174Z,0.95
2019-02-04T08:11:26.933Z,0.95
2019-02-04T08:13:55.210Z,0.92
2019-02-04T08:16:23.059Z,1.04
2019-02-04T08:18:50.819Z,1.07
2019-02-04T08:21:18.607Z,1.10
2019-02-04T08:23:46.397Z,1.15
2019-02-04T08:26:14.173Z,1.35
2019-02-04T08:28:41.961Z,1.29
2019-02-04T08:31:09.734Z,1.28
2019-02-04T08:33:37.473Z,1.42
2019-02-04T08:36:05.473Z,1.37
2019-02-04T08:38:33.205Z,1.53
2019-02-04T08:41:01.026Z,1.51
2019-02-04T08:43:28.799Z,1.49
2019-02-04T08:45:56.523Z,1.67
2019-02-04T08:48:24.285Z,1.74
2019-02-04T08:50:52.146Z,1.85
2019-02-04T08:53:19.947Z,1.96
2019-02-04T08:55:47.726Z,1.98
2019-02-04T08:58:16.291Z,1.88
2019-02-04T09:00:44.116Z,1.96
2019-02-04T09:03:11.913Z,2.10
2019-02-04T09:05:39.736Z,2.31
2019-02-04T09:08:10.161Z,2.26
2019-02-04T09:10:37.928Z,2.32
2019-02-04T09:13:05.697Z,2.33
2019-02-04T09:15:33.453Z,2.54
2019-02-04T09:18:01.830Z,2.63
2019-02-04T09:20:29.603Z,2.76
2019-02-04T09:22:57.374Z,2.85
2019-02-04T09:25:25.386Z,3.03
2019-02-04T09:27:53.416Z,3.16
2019-02-04T09:30:23.440Z,3.11
2019-02-04T09:32:51.654Z,3.02
2019-02-04T09:35:19.996Z,3.10
2019-02-04T09:37:47.768Z,3.13
2019-02-04T09:40:19.975Z,3.39
2019-02-04T09:42:48.045Z,3.27
2019-02-04T09:45:16.080Z,3.38
2019-02-04T09:47:44.250Z,3.53
2019-02-04T09:50:21.929Z,3.94
2019-02-04T09:52:45.218Z,4.37
2019-02-04T09:55:17.741Z,5.65
2019-02-04T09:57:45.820Z,7.67
2019-02-04T10:00:18.228Z,10.04
2019-02-04T10:02:46.007Z,12.19
2019-02-04T10:05:15.360Z,13.58
2019-02-04T10:07:43.170Z,14.75
2019-02-04T10:10:13.513Z,15.13
2019-02-04T10:12:41.290Z,14.07
2019-02-04T10:15:13.631Z,14.02
2019-02-04T10:17:41.384Z,15.56
2019-02-04T10:20:11.264Z,15.62
2019-02-04T10:22:39.057Z,15.44
2019-02-04T10:25:08.275Z,17.39
2019-02-04T10:27:36.138Z,18.61
2019-02-04T10:30:07.854Z,20.44
2019-02-04T10:32:35.664Z,21.65
2019-02-04T10:35:04.272Z,21.78
2019-02-04T10:37:32.170Z,22.02
2019-02-04T10:40:00.005Z,24.33
2019-02-04T10:42:27.934Z,23.57
2019-02-04T10:44:55.782Z,24.01
2019-02-04T10:47:23.543Z,25.37
2019-02-04T10:49:51.531Z,25.02
2019-02-04T10:52:19.343Z,26.11
2019-02-04T10:54:47.239Z,23.22
2019-02-04T10:57:15.186Z,23.13
2019-02-04T10:59:43.058Z,23.25
2019-02-04T11:02:11.449Z,23.55
2019-02-04T11:04:39.304Z,24.08
2019-02-04T11:07:07.062Z,24.02
2019-02-04T11:09:35.013Z,23.54
2019-02-04T11:12:03.149Z,21.39
2019-02-04T11:14:31.311Z,18.68
2019-02-04T11:16:59.072Z,18.03
2019-02-04T11:19:26.972Z,15.04
2019-02-04T11:21:54.900Z,17.24
2019-02-04T11:24:22.751Z,18.44
2019-02-04T11:26:50.706Z,20.39
2019-02-04T11:29:18.900Z,19.63
2019-02-04T11:31:46.786Z,21.63
2019-02-04T11:34:14.578Z,22.70
2019-02-04T11:36:42.411Z,22.99
2019-02-04T11:39:10.303Z,24.50
2019-02-04T11:41:38.101Z,22.42
2019-02-04T11:44:05.884Z,19.94
2019-02-04T11:46:33.666Z,18.96
2019-02-04T11:49:01.575Z,16.87
2019-02-04T11:51:29.392Z,20.66
2019-02-04T11:53:57.156Z,22.98
2019-02-04T11:56:24.998Z,20.83
2019-02-04T11:58:52.794Z,22.19
2019-02-04T12:01:20.594Z,23.67
2019-02-04T12:03:48.669Z,25.55
2019-02-04T12:06:17.559Z,23.36
2019-02-04T12:08:45.525Z,25.39
2019-02-04T12:11:16.840Z,24.02
2019-02-04T12:13:46.944Z,23.06
2019-02-04T12:16:14.825Z,22.73
2019-02-04T12:18:43.021Z,25.18
2019-02-04T12:21:21.044Z,24.76
2019-02-04T12:23:40.697Z,19.58
2019-02-04T12:26:08.461Z,16.35
2019-02-04T12:28:36.277Z,14.19
2019-02-04T12:31:04.683Z,13.13
2019-02-04T12:33:32.499Z,12.00
2019-02-04T12:36:02.147Z,10.79
2019-02-04T12:38:30.024Z,9.82
2019-02-04T12:40:57.956Z,9.32
2019-02-04T12:43:25.716Z,9.05
2019-02-04T12:45:53.480Z,8.76
2019-02-04T12:48:21.303Z,8.59
2019-02-04T12:50:49.085Z,8.19
2019-02-04T12:53:16.899Z,8.16
2019-02-04T12:55:44.696Z,7.91
2019-02-04T12:58:12.477Z,7.68
2019-02-04T13:00:40.376Z,7.65
2019-02-04T13:03:08.188Z,7.83
2019-02-04T13:05:42.510Z,7.79
2019-02-04T13:08:11.037Z,7.68
2019-02-04T13:10:38.903Z,7.55
2019-02-04T13:13:10.299Z,7.53
2019-02-04T13:15:38.416Z,7.41
2019-02-04T13:18:06.596Z,7.37
2019-02-04T13:20:34.557Z,7.55
2019-02-04T13:23:02.973Z,7.28
2019-02-04T13:25:30.746Z,7.27
2019-02-04T13:27:58.618Z,7.09
2019-02-04T13:30:26.754Z,6.84
2019-02-04T13:32:55.162Z,6.77
2019-02-04T13:35:23.032Z,6.65
2019-02-04T13:37:51.695Z,6.48
2019-02-04T13:40:23.168Z,6.49
2019-02-04T13:42:50.958Z,6.55
2019-02-04T13:45:19.585Z,6.31
2019-02-04T13:47:48.165Z,6.16
2019-02-04T13:50:16.510Z,6.27
2019-02-04T13:52:44.999Z,6.30
2019-02-04T13:55:25.634Z,6.42
2019-02-04T13:57:53.429Z,6.77
2019-02-04T14:00:23.297Z,6.72
2019-02-04T14:02:58.848Z,6.95
2019-02-04T14:05:20.881Z,6.74
2019-02-04T14:07:48.694Z,6.57
2019-02-04T14:10:26.091Z,6.52
2019-02-04T14:12:54.095Z,6.43
2019-02-04T14:15:22.567Z,6.92
2019-02-04T14:17:50.461Z,6.79
2019-02-04T14:20:18.775Z,6.89
2019-02-04T14:22:46.689Z,6.72
2019-02-04T14:25:14.699Z,6.67
2019-02-04T14:27:42.829Z,6.29
2019-02-04T14:30:18.208Z,5.99
2019-02-04T14:32:46.173Z,6.07
2019-02-04T14:35:14.072Z,6.17
2019-02-04T14:37:44.986Z,6.03
2019-02-04T14:40:18.676Z,6.03
2019-02-04T14:42:42.658Z,6.14
2019-02-04T14:46:26.564Z,6.18
2019-02-04T14:49:38.014Z,5.91
2019-02-04T14:53:00.297Z,5.71
2019-02-04T14:56:10.288Z,5.87
2019-02-04T14:59:20.314Z,7.00
2019-02-04T15:02:31.151Z,7.47
2019-02-04T15:05:45.141Z,7.87
2019-02-04T15:09:22.462Z,7.35
2019-02-04T15:12:17.770Z,7.04
2019-02-04T15:15:36.178Z,6.56
2019-02-04T15:19:09.834Z,6.20
2019-02-04T15:22:36.604Z,5.73
2019-02-04T15:25:34.896Z,5.44
2019-02-04T15:28:43.372Z,4.95
2019-02-04T15:32:07.562Z,4.72
2019-02-04T15:35:34.874Z,4.36
2019-02-04T15:38:51.308Z,4.33
2019-02-04T15:42:13.595Z,4.10
2019-02-04T15:45:34.731Z,4.02
2019-02-04T15:48:24.923Z,4.00
2019-02-04T15:51:32.065Z,3.85
2019-02-04T15:54:03.873Z,3.81
2019-02-04T15:56:31.662Z,3.68
2019-02-04T15:58:59.428Z,3.67
2019-02-04T16:01:27.264Z,3.71
2019-02-04T16:03:55.260Z,3.61
2019-02-04T16:06:23.028Z,3.46
2019-02-04T16:08:51.189Z,3.45
2019-02-04T16:11:18.959Z,3.40
2019-02-04T16:13:46.919Z,3.34
2019-02-04T16:16:14.748Z,3.29
2019-02-04T16:18:42.743Z,3.27
2019-02-04T16:21:10.593Z,3.31
2019-02-04T16:23:38.371Z,3.25
2019-02-04T16:26:06.263Z,3.16
2019-02-04T16:28:34.067Z,3.12
2019-02-04T16:31:01.933Z,3.20
2019-02-04T16:33:29.729Z,3.18
2019-02-04T16:35:57.473Z,3.24
2019-02-04T16:38:25.234Z,3.16
2019-02-04T16:40:53.091Z,3.16
2019-02-04T16:43:20.871Z,3.14
2019-02-04T16:45:48.682Z,3.10
2019-02-04T16:48:16.458Z,3.03
2019-02-04T16:50:44.235Z,2.87
2019-02-04T16:53:12.040Z,2.87
2019-02-04T16:55:39.838Z,2.87
2019-02-04T16:58:08.068Z,2.77
2019-02-04T17:00:38.786Z,2.81
2019-02-04T17:03:06.604Z,2.75
2019-02-04T17:05:34.636Z,2.73
2019-02-04T17:08:03.188Z,2.67
2019-02-04T17:10:30.984Z,2.55
2019-02-04T17:12:58.810Z,2.54
2019-02-04T17:15:26.967Z,2.64
2019-02-04T17:17:54.848Z,2.56
2019-02-04T17:20:28.913Z,2.56
2019-02-04T17:22:56.764Z,2.59
2019-02-04T17:25:24.592Z,2.66
2019-02-04T17:27:52.405Z,2.62
2019-02-04T17:30:22.377Z,2.65
2019-02-04T17:32:50.376Z,2.47
2019-02-04T17:35:20.033Z,2.61
2019-02-04T17:37:47.838Z,2.47
2019-02-04T17:40:18.495Z,2.45
2019-02-04T17:42:46.688Z,2.55
2019-02-04T17:45:15.441Z,2.45
2019-02-04T17:47:43.841Z,2.39
2019-02-04T17:50:13.968Z,2.56
2019-02-04T17:52:41.942Z,2.52
2019-02-04T17:55:13.921Z,2.36
2019-02-04T17:57:41.906Z,2.44
2019-02-04T18:00:21.394Z,2.44
2019-02-04T18:02:49.441Z,2.41
2019-02-04T18:05:17.722Z,2.42
2019-02-04T18:07:45.550Z,2.41
2019-02-04T18:10:14.221Z,2.41
2019-02-04T18:12:42.072Z,2.42
2019-02-04T18:15:13.556Z,2.35
2019-02-04T18:17:41.379Z,2.37
2019-02-04T18:20:12.004Z,2.26
2019-02-04T18:22:39.734Z,2.28
2019-02-04T18:25:09.536Z,2.25
2019-02-04T18:27:37.337Z,2.36
2019-02-04T18:30:08.287Z,2.28
2019-02-04T18:32:36.277Z,2.28
2019-02-04T18:35:05.813Z,2.26
2019-02-04T18:37:33.744Z,2.26
2019-02-04T18:40:02.056Z,2.31
2019-02-04T18:42:30.164Z,2.29
2019-02-04T18:44:58.336Z,2.36
2019-02-04T18:47:26.224Z,2.29
2019-02-04T18:49:54.186Z,2.23
2019-02-04T18:52:22.233Z,2.14
2019-02-04T18:54:50.109Z,2.22
2019-02-04T18:57:18.197Z,2.18
2019-02-04T18:59:46.087Z,2.21
2019-02-04T19:02:13.873Z,2.19
2019-02-04T19:04:41.690Z,2.25
2019-02-04T19:07:09.530Z,2.24
2019-02-04T19:09:37.387Z,2.21
2019-02-04T19:12:05.468Z,2.16
2019-02-04T19:14:33.568Z,2.28
2019-02-04T19:17:01.371Z,2.17
2019-02-04T19:19:29.222Z,2.12
2019-02-04T19:21:57.033Z,2.07
2019-02-04T19:24:24.821Z,2.06
2019-02-04T19:26:54.068Z,2.01
2019-02-04T19:29:22.009Z,2.01
2019-02-04T19:31:49.833Z,2.06
2019-02-04T19:34:17.661Z,2.03
2019-02-04T19:36:45.430Z,1.99
2019-02-04T19:39:13.297Z,1.87
2019-02-04T19:41:41.086Z,2.01
2019-02-04T19:44:08.903Z,2.02
2019-02-04T19:46:36.722Z,1.94
2019-02-04T19:49:04.667Z,1.89
2019-02-04T19:51:32.456Z,1.86
2019-02-04T19:54:00.248Z,1.95
2019-02-04T19:56:28.022Z,1.90
2019-02-04T19:58:55.899Z,1.85
2019-02-04T20:01:23.635Z,1.81
2019-02-04T20:03:51.436Z,1.81
2019-02-04T20:06:19.251Z,1.73
2019-02-04T20:08:47.071Z,1.87
2019-02-04T20:11:14.926Z,1.72
2019-02-04T20:13:42.658Z,1.68
2019-02-04T20:16:10.637Z,1.60
2019-02-04T20:18:38.503Z,1.65
2019-02-04T20:21:06.301Z,1.80
2019-02-04T20:23:34.105Z,1.67
2019-02-04T20:26:01.927Z,1.78
2019-02-04T20:28:29.700Z,1.73
2019-02-04T20:30:57.520Z,1.58
2019-02-04T20:33:25.368Z,1.60
2019-02-04T20:35:54.133Z,1.56
2019-02-04T20:38:22.201Z,1.63
2019-02-04T20:40:50.019Z,1.48
2019-02-04T20:43:17.855Z,1.46
2019-02-04T20:45:45.633Z,1.40
2019-02-04T20:48:14.279Z,1.40
2019-02-04T20:50:44.076Z,1.40
2019-02-04T20:53:12.063Z,1.34
2019-02-04T20:55:40.382Z,1.37
2019-02-04T20:58:08.537Z,1.35
2019-02-04T21:00:36.358Z,1.53
2019-02-04T21:03:04.541Z,1.46
2019-02-04T21:05:32.381Z,1.49
2019-02-04T21:08:00.181Z,1.38
2019-02-04T21:10:28.209Z,1.47
2019-02-04T21:12:56.730Z,1.57
2019-02-04T21:15:24.984Z,1.50
2019-02-04T21:17:52.931Z,1.50
2019-02-04T21:20:22.880Z,1.40
2019-02-04T21:22:50.660Z,1.40
2019-02-04T21:25:18.577Z,1.43
2019-02-04T21:27:46.369Z,1.42
2019-02-04T21:30:20.502Z,1.48
2019-02-04T21:32:48.282Z,1.45
2019-02-04T21:35:16.074Z,1.45
2019-02-04T21:37:43.820Z,1.53
2019-02-04T21:40:11.929Z,1.51
2019-02-04T21:42:42.800Z,1.52
2019-02-04T21:45:13.583Z,1.57
2019-02-04T21:47:41.344Z,1.52
2019-02-04T21:50:13.443Z,1.61
2019-02-04T21:52:41.366Z,1.57
2019-02-04T21:55:09.508Z,1.59
2019-02-04T21:57:37.253Z,1.57
2019-02-04T22:00:09.745Z,1.47
2019-02-04T22:02:37.519Z,1.65
2019-02-04T22:05:08.657Z,1.66
2019-02-04T22:07:36.445Z,1.62
2019-02-04T22:10:08.629Z,1.50
2019-02-04T22:12:36.666Z,1.65
2019-02-04T22:15:05.885Z,1.62
2019-02-04T22:17:33.647Z,1.53
2019-02-04T22:20:01.603Z,1.47
2019-02-04T22:22:29.661Z,1.53
2019-02-04T22:24:57.605Z,1.61
2019-02-04T22:27:25.691Z,1.55
2019-02-04T22:29:53.599Z,1.50
2019-02-04T22:32:21.643Z,1.46
2019-02-04T22:34:49.730Z,1.52
2019-02-04T22:37:17.474Z,1.46
2019-02-04T22:39:45.421Z,1.42
2019-02-04T22:42:13.131Z,1.53
2019-02-04T22:44:41.059Z,1.48
2019-02-04T22:47:08.841Z,1.52
2019-02-04T22:49:36.822Z,1.46
2019-02-04T22:52:04.859Z,1.45
2019-02-04T22:54:32.631Z,1.48
2019-02-04T22:57:00.400Z,1.49
2019-02-04T22:59:28.161Z,1.44
2019-02-04T23:01:57.471Z,1.34
2019-02-04T23:04:25.863Z,1.47
2019-02-04T23:06:53.734Z,1.40
2019-02-04T23:09:21.704Z,1.45
2019-02-04T23:11:49.489Z,1.40
2019-02-04T23:14:17.236Z,1.43
2019-02-04T23:16:45.203Z,1.37
2019-02-04T23:19:12.940Z,1.37
2019-02-04T23:21:40.875Z,1.37
2019-02-04T23:24:08.755Z,1.29
2019-02-04T23:26:36.544Z,1.25
2019-02-04T23:29:04.925Z,1.36
2019-02-04T23:31:32.745Z,1.33
2019-02-04T23:34:00.528Z,1.24
2019-02-04T23:36:28.811Z,1.29
2019-02-04T23:38:56.648Z,1.24
2019-02-04T23:41:24.433Z,1.37
2019-02-04T23:43:52.204Z,1.36
2019-02-04T23:46:20.147Z,1.33
2019-02-04T23:48:47.928Z,1.39
2019-02-04T23:51:15.894Z,1.27
2019-02-04T23:53:44.413Z,1.32
2019-02-04T23:56:12.194Z,1.36
2019-02-04T23:58:39.960Z,1.45
